sensor_id;sensor_type;location;lat;lon;timestamp;P1;durP1;ratioP1;P2;durP2;ratioP2
10565;SDS011;5331;48.148;16.326;2022-12-18T00:02:13;14.37;;;10.20;;
10565;SDS011;5331;48.148;16.326;2022-12-18T00:04:40;13.27;;;9.43;;
10565;SDS011;5331;48.148;16.326;2022-12-18T00:07:07;14.23;;;10.47;;
10565;SDS011;5331;48.148;16.326;2022-12-18T00:09:34;15.50;;;11.23;;
10565;SDS011;5331;48.148;16.326;2022-12-18T00:12:01;14.90;;;10.03;;
10565;SDS011;5331;48.148;16.326;2022-12-18T00:14:28;14.30;;;10.63;;
10565;SDS011;5331;48.148;16.326;2022-12-18T00:16:56;16.37;;;10.50;;
10565;SDS011;5331;48.148;16.326;2022-12-18T00:19:25;13.37;;;9.43;;
10565;SDS011;5331;48.148;16.326;2022-12-18T00:21:52;14.27;;;10.07;;
10565;SDS011;5331;48.148;16.326;2022-12-18T00:24:19;14.53;;;9.87;;
10565;SDS011;5331;48.148;16.326;2022-12-18T00:26:46;15.60;;;10.17;;
10565;SDS011;5331;48.148;16.326;2022-12-18T00:29:13;13.50;;;9.23;;
10565;SDS011;5331;48.148;16.326;2022-12-18T00:31:40;13.07;;;9.53;;
10565;SDS011;5331;48.148;16.326;2022-12-18T00:34:10;13.40;;;9.53;;
10565;SDS011;5331;48.148;16.326;2022-12-18T00:36:38;15.77;;;10.33;;
10565;SDS011;5331;48.148;16.326;2022-12-18T00:39:06;13.33;;;9.33;;
10565;SDS011;5331;48.148;16.326;2022-12-18T00:41:33;13.37;;;9.33;;
10565;SDS011;5331;48.148;16.326;2022-12-18T00:44:18;11.80;;;8.97;;
10565;SDS011;5331;48.148;16.326;2022-12-18T00:46:46;12.43;;;9.43;;
10565;SDS011;5331;48.148;16.326;2022-12-18T00:49:15;12.03;;;8.50;;
10565;SDS011;5331;48.148;16.326;2022-12-18T00:51:42;11.17;;;8.77;;
10565;SDS011;5331;48.148;16.326;2022-12-18T00:54:10;10.57;;;8.20;;
10565;SDS011;5331;48.148;16.326;2022-12-18T00:56:37;12.90;;;8.90;;
10565;SDS011;5331;48.148;16.326;2022-12-18T00:59:04;13.60;;;8.97;;
10565;SDS011;5331;48.148;16.326;2022-12-18T01:01:31;13.73;;;9.33;;
10565;SDS011;5331;48.148;16.326;2022-12-18T01:03:59;10.33;;;8.27;;
10565;SDS011;5331;48.148;16.326;2022-12-18T01:06:29;12.70;;;8.03;;
10565;SDS011;5331;48.148;16.326;2022-12-18T01:08:56;11.10;;;8.37;;
10565;SDS011;5331;48.148;16.326;2022-12-18T01:11:23;11.40;;;8.60;;
10565;SDS011;5331;48.148;16.326;2022-12-18T01:13:51;11.07;;;8.60;;
10565;SDS011;5331;48.148;16.326;2022-12-18T01:16:19;10.43;;;8.10;;
10565;SDS011;5331;48.148;16.326;2022-12-18T01:18:47;11.60;;;8.33;;
10565;SDS011;5331;48.148;16.326;2022-12-18T01:21:16;11.43;;;8.80;;
10565;SDS011;5331;48.148;16.326;2022-12-18T01:23:45;11.07;;;8.50;;
10565;SDS011;5331;48.148;16.326;2022-12-18T01:26:13;12.70;;;8.27;;
10565;SDS011;5331;48.148;16.326;2022-12-18T01:28:41;11.53;;;7.93;;
10565;SDS011;5331;48.148;16.326;2022-12-18T01:31:13;10.20;;;7.50;;
10565;SDS011;5331;48.148;16.326;2022-12-18T01:33:42;10.07;;;7.63;;
10565;SDS011;5331;48.148;16.326;2022-12-18T01:36:14;9.30;;;7.43;;
10565;SDS011;5331;48.148;16.326;2022-12-18T01:38:42;10.23;;;7.77;;
10565;SDS011;5331;48.148;16.326;2022-12-18T01:41:10;9.33;;;7.90;;
10565;SDS011;5331;48.148;16.326;2022-12-18T01:43:45;10.67;;;8.03;;
10565;SDS011;5331;48.148;16.326;2022-12-18T01:46:17;11.37;;;8.63;;
10565;SDS011;5331;48.148;16.326;2022-12-18T01:48:46;11.90;;;8.77;;
10565;SDS011;5331;48.148;16.326;2022-12-18T01:51:15;13.33;;;10.70;;
10565;SDS011;5331;48.148;16.326;2022-12-18T01:53:42;13.50;;;9.80;;
10565;SDS011;5331;48.148;16.326;2022-12-18T01:56:16;13.77;;;10.17;;
10565;SDS011;5331;48.148;16.326;2022-12-18T01:58:52;14.90;;;10.13;;
10565;SDS011;5331;48.148;16.326;2022-12-18T02:01:24;16.20;;;10.57;;
10565;SDS011;5331;48.148;16.326;2022-12-18T02:03:52;16.37;;;11.23;;
10565;SDS011;5331;48.148;16.326;2022-12-18T02:06:20;15.47;;;11.30;;
10565;SDS011;5331;48.148;16.326;2022-12-18T02:08:57;16.93;;;11.53;;
10565;SDS011;5331;48.148;16.326;2022-12-18T02:11:35;17.37;;;11.23;;
10565;SDS011;5331;48.148;16.326;2022-12-18T02:14:15;17.47;;;11.83;;
10565;SDS011;5331;48.148;16.326;2022-12-18T02:16:51;18.23;;;11.80;;
10565;SDS011;5331;48.148;16.326;2022-12-18T02:19:40;16.90;;;12.00;;
10565;SDS011;5331;48.148;16.326;2022-12-18T02:22:22;18.47;;;11.67;;
10565;SDS011;5331;48.148;16.326;2022-12-18T02:24:57;21.37;;;12.53;;
10565;SDS011;5331;48.148;16.326;2022-12-18T02:27:33;18.33;;;12.27;;
10565;SDS011;5331;48.148;16.326;2022-12-18T02:30:03;17.53;;;12.23;;
10565;SDS011;5331;48.148;16.326;2022-12-18T02:32:33;17.67;;;12.07;;
10565;SDS011;5331;48.148;16.326;2022-12-18T02:35:04;19.07;;;12.80;;
10565;SDS011;5331;48.148;16.326;2022-12-18T02:37:33;21.20;;;13.67;;
10565;SDS011;5331;48.148;16.326;2022-12-18T02:40:01;21.37;;;13.30;;
10565;SDS011;5331;48.148;16.326;2022-12-18T02:42:30;20.53;;;13.27;;
10565;SDS011;5331;48.148;16.326;2022-12-18T02:44:59;18.03;;;12.23;;
10565;SDS011;5331;48.148;16.326;2022-12-18T02:47:27;18.70;;;12.57;;
10565;SDS011;5331;48.148;16.326;2022-12-18T02:49:58;20.57;;;13.17;;
10565;SDS011;5331;48.148;16.326;2022-12-18T02:52:34;21.40;;;13.80;;
10565;SDS011;5331;48.148;16.326;2022-12-18T02:55:11;19.37;;;13.27;;
10565;SDS011;5331;48.148;16.326;2022-12-18T02:57:47;19.07;;;12.70;;
10565;SDS011;5331;48.148;16.326;2022-12-18T03:00:17;19.40;;;13.40;;
10565;SDS011;5331;48.148;16.326;2022-12-18T03:02:47;20.30;;;13.87;;
10565;SDS011;5331;48.148;16.326;2022-12-18T03:05:18;23.00;;;13.27;;
10565;SDS011;5331;48.148;16.326;2022-12-18T03:07:48;19.77;;;13.20;;
10565;SDS011;5331;48.148;16.326;2022-12-18T03:10:19;21.03;;;12.80;;
10565;SDS011;5331;48.148;16.326;2022-12-18T03:12:52;17.87;;;12.23;;
10565;SDS011;5331;48.148;16.326;2022-12-18T03:15:24;21.03;;;12.20;;
10565;SDS011;5331;48.148;16.326;2022-12-18T03:17:55;22.57;;;13.47;;
10565;SDS011;5331;48.148;16.326;2022-12-18T03:20:25;17.53;;;12.37;;
10565;SDS011;5331;48.148;16.326;2022-12-18T03:22:57;18.03;;;12.20;;
10565;SDS011;5331;48.148;16.326;2022-12-18T03:25:28;19.97;;;12.10;;
10565;SDS011;5331;48.148;16.326;2022-12-18T03:28:00;16.73;;;11.50;;
10565;SDS011;5331;48.148;16.326;2022-12-18T03:30:31;15.43;;;10.87;;
10565;SDS011;5331;48.148;16.326;2022-12-18T03:33:05;14.40;;;10.23;;
10565;SDS011;5331;48.148;16.326;2022-12-18T03:35:37;16.13;;;10.73;;
10565;SDS011;5331;48.148;16.326;2022-12-18T03:38:06;18.13;;;11.50;;
10565;SDS011;5331;48.148;16.326;2022-12-18T03:40:35;17.20;;;11.23;;
10565;SDS011;5331;48.148;16.326;2022-12-18T03:43:18;15.50;;;10.30;;
10565;SDS011;5331;48.148;16.326;2022-12-18T03:45:53;17.10;;;11.60;;
10565;SDS011;5331;48.148;16.326;2022-12-18T03:48:27;17.17;;;11.63;;
10565;SDS011;5331;48.148;16.326;2022-12-18T03:51:01;16.83;;;11.60;;
10565;SDS011;5331;48.148;16.326;2022-12-18T03:53:33;18.33;;;11.90;;
10565;SDS011;5331;48.148;16.326;2022-12-18T03:56:05;17.40;;;11.67;;
10565;SDS011;5331;48.148;16.326;2022-12-18T03:58:35;15.60;;;11.47;;
10565;SDS011;5331;48.148;16.326;2022-12-18T04:01:08;15.87;;;11.50;;
10565;SDS011;5331;48.148;16.326;2022-12-18T04:03:38;19.67;;;12.70;;
10565;SDS011;5331;48.148;16.326;2022-12-18T04:06:06;16.27;;;11.63;;
10565;SDS011;5331;48.148;16.326;2022-12-18T04:08:33;14.43;;;11.13;;
10565;SDS011;5331;48.148;16.326;2022-12-18T04:11:01;17.57;;;11.77;;
10565;SDS011;5331;48.148;16.326;2022-12-18T04:13:29;17.70;;;12.43;;
10565;SDS011;5331;48.148;16.326;2022-12-18T04:16:02;20.80;;;12.90;;
10565;SDS011;5331;48.148;16.326;2022-12-18T04:18:30;21.67;;;13.07;;
10565;SDS011;5331;48.148;16.326;2022-12-18T04:20:57;19.93;;;13.50;;
10565;SDS011;5331;48.148;16.326;2022-12-18T04:23:23;20.13;;;13.63;;
10565;SDS011;5331;48.148;16.326;2022-12-18T04:25:50;19.77;;;13.60;;
10565;SDS011;5331;48.148;16.326;2022-12-18T04:28:17;19.77;;;13.73;;
10565;SDS011;5331;48.148;16.326;2022-12-18T04:30:44;20.93;;;13.40;;
10565;SDS011;5331;48.148;16.326;2022-12-18T04:33:17;19.63;;;13.43;;
10565;SDS011;5331;48.148;16.326;2022-12-18T04:35:45;18.27;;;12.37;;
10565;SDS011;5331;48.148;16.326;2022-12-18T04:38:12;22.47;;;14.17;;
10565;SDS011;5331;48.148;16.326;2022-12-18T04:40:40;21.87;;;14.13;;
10565;SDS011;5331;48.148;16.326;2022-12-18T04:43:06;17.23;;;12.47;;
10565;SDS011;5331;48.148;16.326;2022-12-18T04:45:33;20.37;;;13.60;;
10565;SDS011;5331;48.148;16.326;2022-12-18T04:48:01;21.50;;;13.80;;
10565;SDS011;5331;48.148;16.326;2022-12-18T04:50:30;20.50;;;13.03;;
10565;SDS011;5331;48.148;16.326;2022-12-18T04:52:57;21.47;;;13.37;;
10565;SDS011;5331;48.148;16.326;2022-12-18T04:55:25;21.93;;;13.93;;
10565;SDS011;5331;48.148;16.326;2022-12-18T04:57:51;20.67;;;13.63;;
10565;SDS011;5331;48.148;16.326;2022-12-18T05:00:19;24.17;;;14.77;;
10565;SDS011;5331;48.148;16.326;2022-12-18T05:02:46;19.83;;;13.40;;
10565;SDS011;5331;48.148;16.326;2022-12-18T05:05:13;22.23;;;13.70;;
10565;SDS011;5331;48.148;16.326;2022-12-18T05:07:41;19.07;;;13.07;;
10565;SDS011;5331;48.148;16.326;2022-12-18T05:10:09;23.13;;;14.77;;
10565;SDS011;5331;48.148;16.326;2022-12-18T05:12:36;20.33;;;13.67;;
10565;SDS011;5331;48.148;16.326;2022-12-18T05:15:23;23.30;;;15.70;;
10565;SDS011;5331;48.148;16.326;2022-12-18T05:17:50;20.40;;;13.43;;
10565;SDS011;5331;48.148;16.326;2022-12-18T05:20:17;21.43;;;13.43;;
10565;SDS011;5331;48.148;16.326;2022-12-18T05:22:46;21.73;;;14.30;;
10565;SDS011;5331;48.148;16.326;2022-12-18T05:25:13;21.63;;;14.03;;
10565;SDS011;5331;48.148;16.326;2022-12-18T05:27:40;22.43;;;13.77;;
10565;SDS011;5331;48.148;16.326;2022-12-18T05:30:08;19.83;;;13.03;;
10565;SDS011;5331;48.148;16.326;2022-12-18T05:32:35;22.80;;;14.60;;
10565;SDS011;5331;48.148;16.326;2022-12-18T05:35:02;24.13;;;15.30;;
10565;SDS011;5331;48.148;16.326;2022-12-18T05:37:30;23.17;;;14.10;;
10565;SDS011;5331;48.148;16.326;2022-12-18T05:39:59;22.20;;;14.60;;
10565;SDS011;5331;48.148;16.326;2022-12-18T05:42:26;21.20;;;14.10;;
10565;SDS011;5331;48.148;16.326;2022-12-18T05:44:53;22.83;;;14.70;;
10565;SDS011;5331;48.148;16.326;2022-12-18T05:47:20;22.90;;;14.80;;
10565;SDS011;5331;48.148;16.326;2022-12-18T05:49:46;22.17;;;14.73;;
10565;SDS011;5331;48.148;16.326;2022-12-18T05:52:13;21.53;;;14.47;;
10565;SDS011;5331;48.148;16.326;2022-12-18T05:54:40;21.80;;;14.33;;
10565;SDS011;5331;48.148;16.326;2022-12-18T05:57:09;21.60;;;14.00;;
10565;SDS011;5331;48.148;16.326;2022-12-18T05:59:36;21.00;;;14.00;;
10565;SDS011;5331;48.148;16.326;2022-12-18T06:02:04;20.83;;;13.87;;
10565;SDS011;5331;48.148;16.326;2022-12-18T06:04:31;22.20;;;14.30;;
10565;SDS011;5331;48.148;16.326;2022-12-18T06:06:58;19.83;;;13.63;;
10565;SDS011;5331;48.148;16.326;2022-12-18T06:09:25;20.57;;;13.27;;
10565;SDS011;5331;48.148;16.326;2022-12-18T06:11:52;19.77;;;13.53;;
10565;SDS011;5331;48.148;16.326;2022-12-18T06:14:20;20.63;;;13.27;;
10565;SDS011;5331;48.148;16.326;2022-12-18T06:16:47;20.60;;;13.00;;
10565;SDS011;5331;48.148;16.326;2022-12-18T06:19:16;23.97;;;14.50;;
10565;SDS011;5331;48.148;16.326;2022-12-18T06:21:43;22.50;;;14.70;;
10565;SDS011;5331;48.148;16.326;2022-12-18T06:24:10;23.50;;;14.97;;
10565;SDS011;5331;48.148;16.326;2022-12-18T06:26:37;21.03;;;14.40;;
10565;SDS011;5331;48.148;16.326;2022-12-18T06:29:05;21.80;;;14.20;;
10565;SDS011;5331;48.148;16.326;2022-12-18T06:31:33;23.80;;;15.37;;
10565;SDS011;5331;48.148;16.326;2022-12-18T06:34:01;24.20;;;15.87;;
10565;SDS011;5331;48.148;16.326;2022-12-18T06:36:29;23.43;;;15.23;;
10565;SDS011;5331;48.148;16.326;2022-12-18T06:38:56;25.63;;;17.33;;
10565;SDS011;5331;48.148;16.326;2022-12-18T06:41:23;45.80;;;27.70;;
10565;SDS011;5331;48.148;16.326;2022-12-18T06:43:50;45.97;;;28.07;;
10565;SDS011;5331;48.148;16.326;2022-12-18T06:46:17;37.40;;;22.17;;
10565;SDS011;5331;48.148;16.326;2022-12-18T06:48:47;35.70;;;22.83;;
10565;SDS011;5331;48.148;16.326;2022-12-18T06:51:19;33.13;;;20.13;;
10565;SDS011;5331;48.148;16.326;2022-12-18T06:53:47;29.47;;;17.63;;
10565;SDS011;5331;48.148;16.326;2022-12-18T06:56:14;28.37;;;18.43;;
10565;SDS011;5331;48.148;16.326;2022-12-18T06:58:41;29.13;;;18.20;;
10565;SDS011;5331;48.148;16.326;2022-12-18T07:01:09;27.20;;;18.00;;
10565;SDS011;5331;48.148;16.326;2022-12-18T07:03:37;24.43;;;17.27;;
10565;SDS011;5331;48.148;16.326;2022-12-18T07:06:06;25.07;;;17.30;;
10565;SDS011;5331;48.148;16.326;2022-12-18T07:08:38;25.70;;;16.43;;
10565;SDS011;5331;48.148;16.326;2022-12-18T07:11:05;25.90;;;16.87;;
10565;SDS011;5331;48.148;16.326;2022-12-18T07:13:32;24.57;;;16.30;;
10565;SDS011;5331;48.148;16.326;2022-12-18T07:16:03;22.33;;;15.77;;
10565;SDS011;5331;48.148;16.326;2022-12-18T07:18:31;23.47;;;15.67;;
10565;SDS011;5331;48.148;16.326;2022-12-18T07:20:59;21.93;;;15.37;;
10565;SDS011;5331;48.148;16.326;2022-12-18T07:23:31;24.10;;;15.90;;
10565;SDS011;5331;48.148;16.326;2022-12-18T07:26:00;21.80;;;15.93;;
10565;SDS011;5331;48.148;16.326;2022-12-18T07:28:28;21.40;;;15.83;;
10565;SDS011;5331;48.148;16.326;2022-12-18T07:30:55;21.93;;;15.97;;
10565;SDS011;5331;48.148;16.326;2022-12-18T07:33:22;21.80;;;15.13;;
10565;SDS011;5331;48.148;16.326;2022-12-18T07:35:49;19.73;;;14.07;;
10565;SDS011;5331;48.148;16.326;2022-12-18T07:38:16;22.10;;;15.43;;
10565;SDS011;5331;48.148;16.326;2022-12-18T07:40:44;22.07;;;14.10;;
10565;SDS011;5331;48.148;16.326;2022-12-18T07:43:12;18.60;;;12.70;;
10565;SDS011;5331;48.148;16.326;2022-12-18T07:45:39;22.13;;;14.13;;
10565;SDS011;5331;48.148;16.326;2022-12-18T07:48:06;20.90;;;13.27;;
10565;SDS011;5331;48.148;16.326;2022-12-18T07:50:33;22.00;;;13.90;;
10565;SDS011;5331;48.148;16.326;2022-12-18T07:53:00;23.13;;;14.10;;
10565;SDS011;5331;48.148;16.326;2022-12-18T07:55:29;24.00;;;15.73;;
10565;SDS011;5331;48.148;16.326;2022-12-18T07:57:59;23.10;;;15.37;;
10565;SDS011;5331;48.148;16.326;2022-12-18T08:00:27;22.53;;;15.60;;
10565;SDS011;5331;48.148;16.326;2022-12-18T08:02:55;24.97;;;14.90;;
10565;SDS011;5331;48.148;16.326;2022-12-18T08:05:22;22.57;;;14.67;;
10565;SDS011;5331;48.148;16.326;2022-12-18T08:07:49;24.67;;;15.37;;
10565;SDS011;5331;48.148;16.326;2022-12-18T08:10:17;22.23;;;14.03;;
10565;SDS011;5331;48.148;16.326;2022-12-18T08:12:44;24.23;;;14.93;;
10565;SDS011;5331;48.148;16.326;2022-12-18T08:15:13;30.00;;;16.97;;
10565;SDS011;5331;48.148;16.326;2022-12-18T08:17:39;27.17;;;16.43;;
10565;SDS011;5331;48.148;16.326;2022-12-18T08:20:07;26.63;;;16.07;;
10565;SDS011;5331;48.148;16.326;2022-12-18T08:22:35;21.97;;;14.40;;
10565;SDS011;5331;48.148;16.326;2022-12-18T08:25:02;27.33;;;16.23;;
10565;SDS011;5331;48.148;16.326;2022-12-18T08:27:29;25.30;;;15.93;;
10565;SDS011;5331;48.148;16.326;2022-12-18T08:29:56;23.80;;;15.57;;
10565;SDS011;5331;48.148;16.326;2022-12-18T08:32:25;26.43;;;16.13;;
10565;SDS011;5331;48.148;16.326;2022-12-18T08:34:53;24.87;;;15.83;;
10565;SDS011;5331;48.148;16.326;2022-12-18T08:37:20;26.13;;;16.03;;
10565;SDS011;5331;48.148;16.326;2022-12-18T08:39:47;23.60;;;14.87;;
10565;SDS011;5331;48.148;16.326;2022-12-18T08:42:14;24.20;;;15.90;;
10565;SDS011;5331;48.148;16.326;2022-12-18T08:44:58;24.50;;;16.17;;
10565;SDS011;5331;48.148;16.326;2022-12-18T08:47:26;25.53;;;16.87;;
10565;SDS011;5331;48.148;16.326;2022-12-18T08:49:54;28.03;;;17.53;;
10565;SDS011;5331;48.148;16.326;2022-12-18T08:52:21;25.23;;;17.13;;
10565;SDS011;5331;48.148;16.326;2022-12-18T08:54:48;28.77;;;17.60;;
10565;SDS011;5331;48.148;16.326;2022-12-18T08:57:15;26.53;;;17.17;;
10565;SDS011;5331;48.148;16.326;2022-12-18T08:59:42;29.33;;;18.23;;
10565;SDS011;5331;48.148;16.326;2022-12-18T09:02:09;30.13;;;18.97;;
10565;SDS011;5331;48.148;16.326;2022-12-18T09:04:38;29.17;;;18.53;;
10565;SDS011;5331;48.148;16.326;2022-12-18T09:07:05;37.00;;;23.10;;
10565;SDS011;5331;48.148;16.326;2022-12-18T09:09:32;34.13;;;21.60;;
10565;SDS011;5331;48.148;16.326;2022-12-18T09:11:59;30.53;;;19.23;;
10565;SDS011;5331;48.148;16.326;2022-12-18T09:14:26;29.23;;;18.50;;
10565;SDS011;5331;48.148;16.326;2022-12-18T09:16:53;28.67;;;19.00;;
10565;SDS011;5331;48.148;16.326;2022-12-18T09:19:20;27.23;;;17.97;;
10565;SDS011;5331;48.148;16.326;2022-12-18T09:21:48;31.80;;;20.60;;
10565;SDS011;5331;48.148;16.326;2022-12-18T09:24:15;32.83;;;21.57;;
10565;SDS011;5331;48.148;16.326;2022-12-18T09:26:42;33.57;;;21.90;;
10565;SDS011;5331;48.148;16.326;2022-12-18T09:29:09;29.33;;;20.13;;
10565;SDS011;5331;48.148;16.326;2022-12-18T09:31:36;32.27;;;19.80;;
10565;SDS011;5331;48.148;16.326;2022-12-18T09:34:04;31.93;;;20.63;;
10565;SDS011;5331;48.148;16.326;2022-12-18T09:36:32;36.37;;;22.90;;
10565;SDS011;5331;48.148;16.326;2022-12-18T09:39:00;37.47;;;22.73;;
10565;SDS011;5331;48.148;16.326;2022-12-18T09:41:39;35.00;;;21.90;;
10565;SDS011;5331;48.148;16.326;2022-12-18T09:44:19;36.40;;;22.47;;
10565;SDS011;5331;48.148;16.326;2022-12-18T09:46:52;34.13;;;22.10;;
10565;SDS011;5331;48.148;16.326;2022-12-18T09:49:36;36.93;;;22.67;;
10565;SDS011;5331;48.148;16.326;2022-12-18T09:52:08;38.73;;;23.00;;
10565;SDS011;5331;48.148;16.326;2022-12-18T09:54:40;40.33;;;22.73;;
10565;SDS011;5331;48.148;16.326;2022-12-18T09:57:10;40.50;;;23.30;;
10565;SDS011;5331;48.148;16.326;2022-12-18T09:59:40;41.30;;;22.17;;
10565;SDS011;5331;48.148;16.326;2022-12-18T10:02:17;38.87;;;22.90;;
10565;SDS011;5331;48.148;16.326;2022-12-18T10:04:48;36.80;;;21.07;;
10565;SDS011;5331;48.148;16.326;2022-12-18T10:07:36;38.63;;;21.67;;
10565;SDS011;5331;48.148;16.326;2022-12-18T10:10:19;39.93;;;21.70;;
10565;SDS011;5331;48.148;16.326;2022-12-18T10:12:57;40.37;;;20.77;;
10565;SDS011;5331;48.148;16.326;2022-12-18T10:15:34;37.43;;;20.30;;
10565;SDS011;5331;48.148;16.326;2022-12-18T10:18:10;34.13;;;20.17;;
10565;SDS011;5331;48.148;16.326;2022-12-18T10:20:47;34.57;;;20.77;;
10565;SDS011;5331;48.148;16.326;2022-12-18T10:23:18;33.73;;;20.30;;
10565;SDS011;5331;48.148;16.326;2022-12-18T10:25:55;29.67;;;18.43;;
10565;SDS011;5331;48.148;16.326;2022-12-18T10:28:27;35.37;;;20.33;;
10565;SDS011;5331;48.148;16.326;2022-12-18T10:30:56;34.07;;;19.73;;
10565;SDS011;5331;48.148;16.326;2022-12-18T10:33:27;35.07;;;19.73;;
10565;SDS011;5331;48.148;16.326;2022-12-18T10:35:55;34.83;;;19.57;;
10565;SDS011;5331;48.148;16.326;2022-12-18T10:38:23;36.50;;;19.47;;
10565;SDS011;5331;48.148;16.326;2022-12-18T10:40:54;31.87;;;18.33;;
10565;SDS011;5331;48.148;16.326;2022-12-18T10:43:23;33.73;;;18.30;;
10565;SDS011;5331;48.148;16.326;2022-12-18T10:46:02;33.83;;;18.33;;
10565;SDS011;5331;48.148;16.326;2022-12-18T10:48:47;34.17;;;19.63;;
10565;SDS011;5331;48.148;16.326;2022-12-18T10:51:21;35.47;;;20.67;;
10565;SDS011;5331;48.148;16.326;2022-12-18T10:53:54;31.07;;;18.70;;
10565;SDS011;5331;48.148;16.326;2022-12-18T10:56:26;33.83;;;18.93;;
10565;SDS011;5331;48.148;16.326;2022-12-18T10:58:56;36.23;;;20.33;;
10565;SDS011;5331;48.148;16.326;2022-12-18T11:01:24;34.80;;;20.23;;
10565;SDS011;5331;48.148;16.326;2022-12-18T11:03:59;35.93;;;20.77;;
10565;SDS011;5331;48.148;16.326;2022-12-18T11:06:27;37.67;;;21.00;;
10565;SDS011;5331;48.148;16.326;2022-12-18T11:08:58;32.93;;;21.10;;
10565;SDS011;5331;48.148;16.326;2022-12-18T11:11:28;40.17;;;22.17;;
10565;SDS011;5331;48.148;16.326;2022-12-18T11:13:58;37.63;;;22.93;;
10565;SDS011;5331;48.148;16.326;2022-12-18T11:16:27;33.97;;;21.40;;
10565;SDS011;5331;48.148;16.326;2022-12-18T11:18:57;35.80;;;21.77;;
10565;SDS011;5331;48.148;16.326;2022-12-18T11:21:41;36.57;;;20.57;;
10565;SDS011;5331;48.148;16.326;2022-12-18T11:24:14;33.00;;;19.40;;
10565;SDS011;5331;48.148;16.326;2022-12-18T11:26:48;39.87;;;21.00;;
10565;SDS011;5331;48.148;16.326;2022-12-18T11:29:16;35.97;;;20.37;;
10565;SDS011;5331;48.148;16.326;2022-12-18T11:31:44;35.83;;;20.43;;
10565;SDS011;5331;48.148;16.326;2022-12-18T11:34:12;35.73;;;20.17;;
10565;SDS011;5331;48.148;16.326;2022-12-18T11:36:52;33.57;;;20.07;;
10565;SDS011;5331;48.148;16.326;2022-12-18T11:39:20;32.73;;;19.03;;
10565;SDS011;5331;48.148;16.326;2022-12-18T11:41:57;37.00;;;22.20;;
10565;SDS011;5331;48.148;16.326;2022-12-18T11:44:38;34.77;;;20.07;;
10565;SDS011;5331;48.148;16.326;2022-12-18T11:47:15;33.97;;;19.30;;
10565;SDS011;5331;48.148;16.326;2022-12-18T11:49:47;36.63;;;20.67;;
10565;SDS011;5331;48.148;16.326;2022-12-18T11:52:16;37.47;;;20.90;;
10565;SDS011;5331;48.148;16.326;2022-12-18T11:54:47;39.20;;;21.23;;
10565;SDS011;5331;48.148;16.326;2022-12-18T11:57:22;36.87;;;20.90;;
10565;SDS011;5331;48.148;16.326;2022-12-18T12:00:01;35.67;;;20.27;;
10565;SDS011;5331;48.148;16.326;2022-12-18T12:02:38;37.73;;;21.33;;
10565;SDS011;5331;48.148;16.326;2022-12-18T12:05:18;36.90;;;20.43;;
10565;SDS011;5331;48.148;16.326;2022-12-18T12:07:53;38.13;;;21.67;;
10565;SDS011;5331;48.148;16.326;2022-12-18T12:10:26;38.20;;;21.40;;
10565;SDS011;5331;48.148;16.326;2022-12-18T12:13:03;38.37;;;22.00;;
10565;SDS011;5331;48.148;16.326;2022-12-18T12:15:40;38.07;;;22.17;;
10565;SDS011;5331;48.148;16.326;2022-12-18T12:18:21;36.70;;;20.97;;
10565;SDS011;5331;48.148;16.326;2022-12-18T12:20:59;36.10;;;20.70;;
10565;SDS011;5331;48.148;16.326;2022-12-18T12:23:35;42.10;;;22.67;;
10565;SDS011;5331;48.148;16.326;2022-12-18T12:26:08;44.07;;;23.67;;
10565;SDS011;5331;48.148;16.326;2022-12-18T12:28:47;39.77;;;21.53;;
10565;SDS011;5331;48.148;16.326;2022-12-18T12:31:24;38.20;;;21.47;;
10565;SDS011;5331;48.148;16.326;2022-12-18T12:34:07;36.13;;;20.93;;
10565;SDS011;5331;48.148;16.326;2022-12-18T12:36:45;36.50;;;21.17;;
10565;SDS011;5331;48.148;16.326;2022-12-18T12:39:20;35.73;;;21.10;;
10565;SDS011;5331;48.148;16.326;2022-12-18T12:41:49;39.37;;;21.70;;
10565;SDS011;5331;48.148;16.326;2022-12-18T12:44:37;39.93;;;21.37;;
10565;SDS011;5331;48.148;16.326;2022-12-18T12:47:10;36.97;;;20.80;;
10565;SDS011;5331;48.148;16.326;2022-12-18T12:49:41;37.83;;;20.73;;
10565;SDS011;5331;48.148;16.326;2022-12-18T12:52:13;37.73;;;20.87;;
10565;SDS011;5331;48.148;16.326;2022-12-18T12:54:43;52.43;;;27.03;;
10565;SDS011;5331;48.148;16.326;2022-12-18T12:57:12;37.10;;;21.33;;
10565;SDS011;5331;48.148;16.326;2022-12-18T12:59:50;38.50;;;20.67;;
10565;SDS011;5331;48.148;16.326;2022-12-18T13:02:28;37.17;;;20.70;;
10565;SDS011;5331;48.148;16.326;2022-12-18T13:04:59;41.70;;;22.33;;
10565;SDS011;5331;48.148;16.326;2022-12-18T13:07:34;40.17;;;21.67;;
10565;SDS011;5331;48.148;16.326;2022-12-18T13:10:12;36.30;;;19.97;;
10565;SDS011;5331;48.148;16.326;2022-12-18T13:12:52;37.60;;;20.97;;
10565;SDS011;5331;48.148;16.326;2022-12-18T13:15:25;36.33;;;21.03;;
10565;SDS011;5331;48.148;16.326;2022-12-18T13:18:05;35.50;;;19.80;;
10565;SDS011;5331;48.148;16.326;2022-12-18T13:20:42;37.70;;;21.60;;
10565;SDS011;5331;48.148;16.326;2022-12-18T13:23:27;35.87;;;20.70;;
10565;SDS011;5331;48.148;16.326;2022-12-18T13:25:57;33.23;;;20.00;;
10565;SDS011;5331;48.148;16.326;2022-12-18T13:34:25;35.30;;;20.87;;
10565;SDS011;5331;48.148;16.326;2022-12-18T13:36:54;35.30;;;20.37;;
10565;SDS011;5331;48.148;16.326;2022-12-18T13:39:26;37.97;;;20.10;;
10565;SDS011;5331;48.148;16.326;2022-12-18T13:48:26;35.30;;;20.80;;
10565;SDS011;5331;48.148;16.326;2022-12-18T13:50:57;34.93;;;20.70;;
10565;SDS011;5331;48.148;16.326;2022-12-18T13:53:28;35.53;;;20.20;;
10565;SDS011;5331;48.148;16.326;2022-12-18T13:55:58;33.60;;;18.60;;
10565;SDS011;5331;48.148;16.326;2022-12-18T13:58:26;33.43;;;19.30;;
10565;SDS011;5331;48.148;16.326;2022-12-18T14:00:53;34.13;;;19.47;;
10565;SDS011;5331;48.148;16.326;2022-12-18T14:03:21;31.40;;;18.83;;
10565;SDS011;5331;48.148;16.326;2022-12-18T14:05:56;34.90;;;20.27;;
10565;SDS011;5331;48.148;16.326;2022-12-18T14:08:29;37.17;;;21.93;;
10565;SDS011;5331;48.148;16.326;2022-12-18T14:11:00;39.60;;;21.70;;
10565;SDS011;5331;48.148;16.326;2022-12-18T14:13:30;43.80;;;24.17;;
10565;SDS011;5331;48.148;16.326;2022-12-18T14:16:00;42.53;;;24.10;;
10565;SDS011;5331;48.148;16.326;2022-12-18T14:18:29;40.03;;;23.03;;
10565;SDS011;5331;48.148;16.326;2022-12-18T14:21:05;43.27;;;23.13;;
10565;SDS011;5331;48.148;16.326;2022-12-18T14:23:41;41.33;;;22.77;;
10565;SDS011;5331;48.148;16.326;2022-12-18T14:26:19;40.73;;;22.63;;
10565;SDS011;5331;48.148;16.326;2022-12-18T14:28:48;42.07;;;23.43;;
10565;SDS011;5331;48.148;16.326;2022-12-18T14:31:18;41.13;;;23.50;;
10565;SDS011;5331;48.148;16.326;2022-12-18T14:33:46;39.47;;;23.10;;
10565;SDS011;5331;48.148;16.326;2022-12-18T14:36:16;42.63;;;24.23;;
10565;SDS011;5331;48.148;16.326;2022-12-18T14:38:47;43.93;;;24.27;;
10565;SDS011;5331;48.148;16.326;2022-12-18T14:41:16;45.50;;;25.43;;
10565;SDS011;5331;48.148;16.326;2022-12-18T14:43:46;44.87;;;24.73;;
10565;SDS011;5331;48.148;16.326;2022-12-18T14:46:28;46.87;;;25.80;;
10565;SDS011;5331;48.148;16.326;2022-12-18T14:48:59;45.77;;;25.53;;
10565;SDS011;5331;48.148;16.326;2022-12-18T14:51:29;46.03;;;24.50;;
10565;SDS011;5331;48.148;16.326;2022-12-18T14:53:57;48.40;;;26.33;;
10565;SDS011;5331;48.148;16.326;2022-12-18T14:56:27;50.63;;;26.93;;